Time;durP1;ratioP1;P1;durP2;ratioP2;P2;SDS_P1;SDS_P2;PMS_P1;PMS_P2;Temp;Humidity;BMP_temperature;BMP_pressure;BME280_temperature;BME280_humidity;BME280_pressure;Samples;Min_cycle;Max_cycle;Signal;HPM_P1;HPM_P2
2024/01/07 00:00:44;;;;;;;56.33;3.23;;;;;;;;;;5053775;28;20481;-72
2024/01/07 00:03:12;;;;;;;55.50;2.40;;;;;;;;;;5053353;28;20466;-72
2024/01/07 00:05:39;;;;;;;57.67;3.33;;;;;;;;;;5053363;28;20829;-71
2024/01/07 00:08:07;;;;;;;55.60;2.60;;;;;;;;;;5053330;28;20451;-71
2024/01/07 00:10:35;;;;;;;58.10;3.87;;;;;;;;;;5053161;28;20901;-71
2024/01/07 00:13:02;;;;;;;56.20;3.23;;;;;;;;;;5053241;28;20491;-72
2024/01/07 00:15:29;;;;;;;55.27;2.10;;;;;;;;;;5053070;28;20524;-71
2024/01/07 00:17:56;;;;;;;56.20;2.70;;;;;;;;;;5053007;28;20470;-72
2024/01/07 00:20:23;;;;;;;55.60;2.90;;;;;;;;;;5053228;28;20455;-71
2024/01/07 00:22:50;;;;;;;55.60;2.50;;;;;;;;;;5052976;28;20467;-72
2024/01/07 00:25:19;;;;;;;55.57;2.40;;;;;;;;;;5052636;28;20461;-71
2024/01/07 00:27:46;;;;;;;56.87;5.87;;;;;;;;;;5053016;28;20459;-72
2024/01/07 00:30:13;;;;;;;55.40;2.50;;;;;;;;;;5052860;28;20953;-72
2024/01/07 00:32:40;;;;;;;55.87;2.67;;;;;;;;;;5052753;28;20863;-72
2024/01/07 00:35:08;;;;;;;55.60;2.50;;;;;;;;;;5052663;28;20446;-71
2024/01/07 00:37:35;;;;;;;55.73;2.43;;;;;;;;;;5052804;28;20818;-71
2024/01/07 00:40:02;;;;;;;55.70;2.50;;;;;;;;;;5052555;28;20457;-71
2024/01/07 00:42:31;;;;;;;55.57;2.50;;;;;;;;;;5052587;28;20453;-71
2024/01/07 00:44:58;;;;;;;55.43;2.30;;;;;;;;;;5052542;28;20485;-71
2024/01/07 00:47:25;;;;;;;55.37;2.20;;;;;;;;;;5052720;28;20450;-71
2024/01/07 00:49:52;;;;;;;55.70;2.60;;;;;;;;;;5052737;28;20452;-73
2024/01/07 00:52:20;;;;;;;55.60;2.80;;;;;;;;;;5052233;28;20483;-72
2024/01/07 00:54:48;;;;;;;57.13;4.67;;;;;;;;;;5052477;28;20462;-72
2024/01/07 00:57:15;;;;;;;55.50;2.77;;;;;;;;;;5052571;28;20454;-72
2024/01/07 00:59:43;;;;;;;55.60;2.53;;;;;;;;;;5052546;28;20456;-71
2024/01/07 01:02:10;;;;;;;56.40;3.60;;;;;;;;;;5052322;28;20446;-71
2024/01/07 01:04:40;;;;;;;55.80;2.57;;;;;;;;;;5051927;28;20474;-72
2024/01/07 01:07:07;;;;;;;59.97;3.90;;;;;;;;;;5052352;28;20454;-72
2024/01/07 01:09:35;;;;;;;55.57;2.60;;;;;;;;;;5052315;28;20451;-73
2024/01/07 01:12:02;;;;;;;55.40;2.13;;;;;;;;;;5052295;28;20850;-71
2024/01/07 01:14:29;;;;;;;57.23;3.23;;;;;;;;;;5051785;28;20471;-73
2024/01/07 01:16:57;;;;;;;57.77;3.03;;;;;;;;;;5051978;28;20463;-72
2024/01/07 01:19:25;;;;;;;59.10;3.80;;;;;;;;;;5052065;28;20461;-71
2024/01/07 01:21:52;;;;;;;55.20;2.43;;;;;;;;;;5052075;28;20451;-71
2024/01/07 01:24:19;;;;;;;55.50;2.40;;;;;;;;;;5051829;28;20820;-72
2024/01/07 01:26:46;;;;;;;55.50;2.50;;;;;;;;;;5051983;28;20448;-72
2024/01/07 01:29:13;;;;;;;55.53;2.40;;;;;;;;;;5052011;28;20453;-72
2024/01/07 01:31:40;;;;;;;61.70;3.40;;;;;;;;;;5051634;28;20447;-72
2024/01/07 01:34:09;;;;;;;58.47;4.63;;;;;;;;;;5051594;28;20470;-72
2024/01/07 01:36:36;;;;;;;55.50;2.30;;;;;;;;;;5051375;28;20451;-71
2024/01/07 01:39:03;;;;;;;55.50;2.73;;;;;;;;;;5051642;28;20915;-71
2024/01/07 01:41:30;;;;;;;56.27;3.37;;;;;;;;;;5051633;28;20446;-71
2024/01/07 01:43:58;;;;;;;55.57;2.80;;;;;;;;;;5052119;28;20561;-72
2024/01/07 01:46:25;;;;;;;57.60;2.77;;;;;;;;;;5051928;28;20460;-71
2024/01/07 01:48:53;;;;;;;55.40;2.30;;;;;;;;;;5052723;28;20457;-71
2024/01/07 01:51:22;;;;;;;55.60;2.50;;;;;;;;;;5050863;28;20457;-71
2024/01/07 01:53:49;;;;;;;55.40;2.60;;;;;;;;;;5051405;28;20487;-71
2024/01/07 01:56:18;;;;;;;55.50;2.40;;;;;;;;;;5051617;28;20463;-71
2024/01/07 01:58:46;;;;;;;55.53;2.73;;;;;;;;;;5051377;28;20963;-71
2024/01/07 02:01:13;;;;;;;55.90;3.67;;;;;;;;;;5051241;28;20448;-71
2024/01/07 02:03:40;;;;;;;55.47;2.50;;;;;;;;;;5051026;28;20466;-71
2024/01/07 02:06:08;;;;;;;56.40;4.20;;;;;;;;;;5051163;28;20462;-73
2024/01/07 02:08:36;;;;;;;55.90;2.70;;;;;;;;;;5051391;28;20452;-72
2024/01/07 02:11:15;;;;;;;55.53;2.57;;;;;;;;;;5051526;28;20462;-71
2024/01/07 02:13:42;;;;;;;55.80;3.03;;;;;;;;;;5050858;28;20908;-72
2024/01/07 02:16:09;;;;;;;55.60;2.57;;;;;;;;;;5051040;28;20481;-72
2024/01/07 02:18:37;;;;;;;56.83;2.60;;;;;;;;;;5050941;28;20464;-72
2024/01/07 02:21:04;;;;;;;67.03;5.00;;;;;;;;;;5051112;28;20448;-72
2024/01/07 02:23:31;;;;;;;55.50;2.40;;;;;;;;;;5050831;28;20473;-72
2024/01/07 02:25:59;;;;;;;55.60;2.70;;;;;;;;;;5050707;28;20446;-72
2024/01/07 02:28:26;;;;;;;55.70;2.83;;;;;;;;;;5051067;28;20447;-71
2024/01/07 02:30:53;;;;;;;55.60;2.60;;;;;;;;;;5050821;28;20974;-71
2024/01/07 02:33:20;;;;;;;57.40;3.00;;;;;;;;;;5050506;28;21023;-72
2024/01/07 02:35:48;;;;;;;55.57;2.73;;;;;;;;;;5050267;28;20446;-72
2024/01/07 02:38:15;;;;;;;55.63;3.10;;;;;;;;;;5051041;28;20444;-72
2024/01/07 02:40:42;;;;;;;55.60;2.63;;;;;;;;;;5050777;28;20445;-72
2024/01/07 02:43:10;;;;;;;57.40;3.20;;;;;;;;;;5050772;28;20477;-72
2024/01/07 02:45:37;;;;;;;55.80;2.90;;;;;;;;;;5050446;28;20451;-71
2024/01/07 02:48:05;;;;;;;55.90;3.00;;;;;;;;;;5050626;28;20449;-73
2024/01/07 02:50:32;;;;;;;55.50;2.37;;;;;;;;;;5050642;28;20822;-71
2024/01/07 02:52:59;;;;;;;55.60;2.33;;;;;;;;;;5050672;28;20489;-72
2024/01/07 02:55:27;;;;;;;55.90;3.47;;;;;;;;;;5050399;28;20936;-73
2024/01/07 02:57:54;;;;;;;56.13;3.30;;;;;;;;;;5050853;28;20824;-72
2024/01/07 03:00:22;;;;;;;56.47;3.63;;;;;;;;;;5050518;28;20510;-72
2024/01/07 03:02:49;;;;;;;55.90;3.60;;;;;;;;;;5052303;28;20463;-72
2024/01/07 03:05:16;;;;;;;57.23;4.93;;;;;;;;;;5054686;28;20558;-72
2024/01/07 03:07:43;;;;;;;55.37;2.50;;;;;;;;;;5054640;28;20455;-72
2024/01/07 03:10:10;;;;;;;55.77;2.40;;;;;;;;;;5054642;28;20450;-72
2024/01/07 03:12:37;;;;;;;55.37;2.33;;;;;;;;;;5054297;28;20495;-71
2024/01/07 03:15:05;;;;;;;55.70;2.80;;;;;;;;;;5054075;28;20447;-72
2024/01/07 03:17:34;;;;;;;55.70;2.60;;;;;;;;;;5054313;28;20520;-71
2024/01/07 03:20:01;;;;;;;55.50;2.77;;;;;;;;;;5054514;28;20446;-72
2024/01/07 03:22:29;;;;;;;55.70;3.10;;;;;;;;;;5054534;28;20446;-72
2024/01/07 03:24:56;;;;;;;55.40;2.30;;;;;;;;;;5054146;28;20494;-71
2024/01/07 03:27:23;;;;;;;55.43;2.30;;;;;;;;;;5054089;28;20454;-72
2024/01/07 03:29:50;;;;;;;55.57;2.50;;;;;;;;;;5054441;28;20462;-72
2024/01/07 03:32:17;;;;;;;55.60;2.40;;;;;;;;;;5053894;28;20965;-72
2024/01/07 03:34:45;;;;;;;56.67;3.30;;;;;;;;;;5053782;28;20477;-71
2024/01/07 03:37:13;;;;;;;55.50;2.50;;;;;;;;;;5054299;28;20450;-72
2024/01/07 03:39:40;;;;;;;55.57;2.60;;;;;;;;;;5053931;28;20453;-72
2024/01/07 03:42:11;;;;;;;55.50;2.50;;;;;;;;;;5053801;28;20447;-71
2024/01/07 03:44:38;;;;;;;55.60;2.77;;;;;;;;;;5053603;28;20479;-72
2024/01/07 03:47:06;;;;;;;55.80;3.07;;;;;;;;;;5053975;28;20454;-73
2024/01/07 03:49:33;;;;;;;55.60;2.73;;;;;;;;;;5053685;28;20944;-72
2024/01/07 03:52:01;;;;;;;55.30;2.20;;;;;;;;;;5053678;28;20947;-71
2024/01/07 03:54:28;;;;;;;55.40;2.27;;;;;;;;;;5053319;28;20495;-72
2024/01/07 03:56:55;;;;;;;57.03;3.00;;;;;;;;;;5053527;28;20489;-72
2024/01/07 03:59:23;;;;;;;55.73;3.50;;;;;;;;;;5053902;28;20442;-72
2024/01/07 04:01:50;;;;;;;56.17;3.33;;;;;;;;;;5053581;28;20462;-73
2024/01/07 04:04:17;;;;;;;57.00;3.00;;;;;;;;;;5053546;28;20471;-71
2024/01/07 04:06:44;;;;;;;55.60;2.63;;;;;;;;;;5053226;28;20475;-72
2024/01/07 04:09:12;;;;;;;55.70;2.90;;;;;;;;;;5053306;28;20451;-71
2024/01/07 04:11:41;;;;;;;55.43;2.60;;;;;;;;;;5053182;28;20454;-72
2024/01/07 04:14:08;;;;;;;55.47;2.70;;;;;;;;;;5052315;28;20490;-72
2024/01/07 04:16:35;;;;;;;55.50;2.50;;;;;;;;;;5052901;28;20963;-71
2024/01/07 04:19:03;;;;;;;55.47;2.50;;;;;;;;;;5053259;28;20457;-72
2024/01/07 04:21:30;;;;;;;55.40;2.50;;;;;;;;;;5053206;28;20485;-72
2024/01/07 04:23:57;;;;;;;55.50;2.50;;;;;;;;;;5052877;28;20474;-72
2024/01/07 04:26:25;;;;;;;55.83;2.80;;;;;;;;;;5052872;28;20457;-71
2024/01/07 04:28:52;;;;;;;55.17;2.40;;;;;;;;;;5053192;28;20449;-72
2024/01/07 04:31:19;;;;;;;55.60;2.50;;;;;;;;;;5053114;28;20447;-72
2024/01/07 04:33:46;;;;;;;55.70;3.23;;;;;;;;;;5052648;28;20492;-72
2024/01/07 04:36:13;;;;;;;55.37;2.70;;;;;;;;;;5052561;28;20546;-72
2024/01/07 04:38:41;;;;;;;55.80;3.40;;;;;;;;;;5052705;28;20450;-72
2024/01/07 04:41:08;;;;;;;55.60;2.97;;;;;;;;;;5052816;28;20939;-71
2024/01/07 04:43:37;;;;;;;55.70;2.83;;;;;;;;;;5052563;28;20833;-72
2024/01/07 04:46:04;;;;;;;57.70;2.60;;;;;;;;;;5052598;28;20443;-71
2024/01/07 04:48:31;;;;;;;61.43;4.20;;;;;;;;;;5052552;28;20520;-72
2024/01/07 04:50:58;;;;;;;57.60;3.43;;;;;;;;;;5052465;28;20448;-71
2024/01/07 04:53:25;;;;;;;55.43;2.53;;;;;;;;;;5052443;28;20505;-71
2024/01/07 04:55:52;;;;;;;55.77;3.00;;;;;;;;;;5052490;28;20452;-71
2024/01/07 04:58:19;;;;;;;55.53;2.17;;;;;;;;;;5052518;28;20453;-71
2024/01/07 05:00:48;;;;;;;55.90;2.83;;;;;;;;;;5052367;28;20530;-71
2024/01/07 05:03:15;;;;;;;56.10;2.90;;;;;;;;;;5052369;28;20467;-72
2024/01/07 05:05:42;;;;;;;55.57;2.50;;;;;;;;;;5052006;28;20448;-71
2024/01/07 05:08:09;;;;;;;57.07;4.23;;;;;;;;;;5052283;28;20442;-72
2024/01/07 05:10:36;;;;;;;55.50;2.93;;;;;;;;;;5052315;28;20451;-71
2024/01/07 05:13:05;;;;;;;62.40;3.33;;;;;;;;;;5052197;28;21006;-72
2024/01/07 05:15:33;;;;;;;55.50;2.33;;;;;;;;;;5052092;28;20451;-71
2024/01/07 05:18:02;;;;;;;56.10;3.27;;;;;;;;;;5052178;28;20529;-72
2024/01/07 05:20:29;;;;;;;58.27;3.67;;;;;;;;;;5052716;28;20455;-71
2024/01/07 05:22:56;;;;;;;55.57;2.70;;;;;;;;;;5052409;28;20842;-72
2024/01/07 05:25:23;;;;;;;55.37;2.57;;;;;;;;;;5051169;28;20446;-73
2024/01/07 05:27:50;;;;;;;55.40;2.17;;;;;;;;;;5051395;28;20451;-72
2024/01/07 05:30:17;;;;;;;56.93;3.20;;;;;;;;;;5051820;28;20834;-72
2024/01/07 05:32:45;;;;;;;55.80;2.97;;;;;;;;;;5051571;28;20471;-72
2024/01/07 05:35:13;;;;;;;55.47;2.60;;;;;;;;;;5051604;28;20517;-72
2024/01/07 05:37:40;;;;;;;59.60;5.13;;;;;;;;;;5051920;28;20458;-72
2024/01/07 05:40:08;;;;;;;55.20;2.27;;;;;;;;;;5051717;28;20447;-73
2024/01/07 05:42:35;;;;;;;55.93;2.70;;;;;;;;;;5051608;28;21108;-71
2024/01/07 05:45:03;;;;;;;55.80;2.77;;;;;;;;;;5051311;28;20454;-71
2024/01/07 05:47:30;;;;;;;55.30;2.47;;;;;;;;;;5051316;28;20452;-72
2024/01/07 05:49:57;;;;;;;55.40;2.37;;;;;;;;;;5051716;28;20644;-71
2024/01/07 05:52:26;;;;;;;55.67;2.83;;;;;;;;;;5051462;28;20457;-71
2024/01/07 05:54:53;;;;;;;55.60;2.40;;;;;;;;;;5043044;28;20869;-71
2024/01/07 05:57:20;;;;;;;55.70;2.80;;;;;;;;;;5051358;28;20454;-72
2024/01/07 05:59:47;;;;;;;55.57;2.50;;;;;;;;;;5051209;28;20465;-71
2024/01/07 06:02:14;;;;;;;55.37;2.60;;;;;;;;;;5051418;28;20470;-71
2024/01/07 06:04:41;;;;;;;55.43;2.40;;;;;;;;;;5050993;28;20473;-72
2024/01/07 06:07:08;;;;;;;55.50;2.70;;;;;;;;;;5051329;28;20451;-72
2024/01/07 06:09:37;;;;;;;59.00;3.97;;;;;;;;;;5051188;28;20447;-72
2024/01/07 06:12:04;;;;;;;55.50;2.20;;;;;;;;;;5051501;28;20513;-71
2024/01/07 06:14:31;;;;;;;56.00;3.43;;;;;;;;;;5050587;28;20498;-71
2024/01/07 06:16:58;;;;;;;56.57;2.90;;;;;;;;;;5050939;28;20495;-73
2024/01/07 06:19:26;;;;;;;58.70;4.23;;;;;;;;;;5051016;28;20939;-72
2024/01/07 06:21:53;;;;;;;55.60;2.50;;;;;;;;;;5050812;28;20450;-72
2024/01/07 06:24:20;;;;;;;55.83;3.10;;;;;;;;;;5050947;28;20463;-71
2024/01/07 06:26:48;;;;;;;55.47;2.50;;;;;;;;;;5050697;28;20491;-72
2024/01/07 06:29:15;;;;;;;55.37;2.50;;;;;;;;;;5051126;28;20453;-72
2024/01/07 06:31:45;;;;;;;55.50;2.87;;;;;;;;;;5050767;28;20461;-73
2024/01/07 06:34:13;;;;;;;55.60;2.63;;;;;;;;;;5050765;28;20506;-71
2024/01/07 06:36:41;;;;;;;55.57;2.60;;;;;;;;;;5050218;28;20977;-71
2024/01/07 06:39:08;;;;;;;55.37;2.20;;;;;;;;;;5050786;28;20457;-72
2024/01/07 06:41:35;;;;;;;55.40;2.37;;;;;;;;;;5050574;28;20582;-72
2024/01/07 06:44:03;;;;;;;55.70;2.90;;;;;;;;;;5050681;28;21050;-72
2024/01/07 06:46:30;;;;;;;55.40;2.40;;;;;;;;;;5050386;28;20465;-72
2024/01/07 06:48:58;;;;;;;55.57;2.70;;;;;;;;;;5050682;28;20455;-71
2024/01/07 06:51:25;;;;;;;55.50;2.50;;;;;;;;;;5050755;28;20451;-72
2024/01/07 06:53:52;;;;;;;55.60;2.80;;;;;;;;;;5050132;28;20494;-72
2024/01/07 06:56:19;;;;;;;55.37;2.27;;;;;;;;;;5050389;28;20451;-72
2024/01/07 06:58:46;;;;;;;55.40;2.60;;;;;;;;;;5050682;28;20471;-72
2024/01/07 07:01:19;;;;;;;55.70;2.83;;;;;;;;;;5050789;28;20442;-72
2024/01/07 07:03:46;;;;;;;55.37;2.40;;;;;;;;;;5050405;28;21010;-72
2024/01/07 07:06:13;;;;;;;55.50;3.13;;;;;;;;;;5050282;28;20932;-73
2024/01/07 07:08:40;;;;;;;55.37;2.60;;;;;;;;;;5050338;28;20801;-71
2024/01/07 07:11:07;;;;;;;55.47;2.67;;;;;;;;;;5050642;28;20451;-73
2024/01/07 07:13:34;;;;;;;55.47;2.37;;;;;;;;;;5050397;28;20462;-71
2024/01/07 07:16:02;;;;;;;55.43;2.50;;;;;;;;;;5050241;28;20451;-72
2024/01/07 07:18:30;;;;;;;55.57;2.53;;;;;;;;;;5050429;28;20466;-72
2024/01/07 07:20:57;;;;;;;55.37;2.30;;;;;;;;;;5042574;28;20450;-73
2024/01/07 07:23:24;;;;;;;55.37;2.63;;;;;;;;;;5050287;28;20474;-72
2024/01/07 07:25:51;;;;;;;55.40;2.20;;;;;;;;;;5050265;28;20894;-72
2024/01/07 07:28:19;;;;;;;55.63;2.67;;;;;;;;;;5050451;28;20474;-72
2024/01/07 07:30:46;;;;;;;55.80;3.37;;;;;;;;;;5050262;28;20468;-71
2024/01/07 07:33:13;;;;;;;55.27;2.20;;;;;;;;;;5050182;28;20478;-73
2024/01/07 07:35:42;;;;;;;55.50;2.50;;;;;;;;;;5049943;28;20486;-72
2024/01/07 07:38:09;;;;;;;55.70;2.67;;;;;;;;;;5050216;28;20461;-72
2024/01/07 07:40:36;;;;;;;55.47;2.50;;;;;;;;;;5050270;28;20451;-72
2024/01/07 07:43:03;;;;;;;55.47;2.20;;;;;;;;;;5050155;28;20479;-72
2024/01/07 07:45:30;;;;;;;55.50;2.63;;;;;;;;;;5050034;28;20963;-73
2024/01/07 07:47:57;;;;;;;55.40;2.63;;;;;;;;;;5050094;28;20911;-72
2024/01/07 07:50:24;;;;;;;55.40;2.00;;;;;;;;;;5052772;28;20455;-72
2024/01/07 07:52:53;;;;;;;55.60;2.83;;;;;;;;;;5053659;28;20470;-71
2024/01/07 07:55:20;;;;;;;55.77;3.27;;;;;;;;;;5053288;28;20554;-72
2024/01/07 07:57:47;;;;;;;55.70;2.80;;;;;;;;;;5053558;28;20453;-72
2024/01/07 08:00:15;;;;;;;55.67;2.60;;;;;;;;;;5053583;28;20455;-72
2024/01/07 08:02:42;;;;;;;55.70;2.70;;;;;;;;;;5053409;28;20890;-72
2024/01/07 08:05:09;;;;;;;55.80;2.87;;;;;;;;;;5053594;28;20447;-72
2024/01/07 08:07:36;;;;;;;55.47;2.50;;;;;;;;;;5053414;28;20451;-73
2024/01/07 08:10:05;;;;;;;55.60;2.40;;;;;;;;;;5053478;28;20451;-72
2024/01/07 08:12:32;;;;;;;56.00;2.83;;;;;;;;;;5053283;28;20450;-72
2024/01/07 08:15:00;;;;;;;55.30;2.40;;;;;;;;;;5052987;28;20842;-72
2024/01/07 08:17:28;;;;;;;55.50;2.70;;;;;;;;;;5053060;28;20489;-72
2024/01/07 08:19:55;;;;;;;56.00;2.77;;;;;;;;;;5053439;28;20834;-72
2024/01/07 08:22:22;;;;;;;55.67;2.67;;;;;;;;;;5053215;28;20543;-72
2024/01/07 08:24:50;;;;;;;55.53;2.50;;;;;;;;;;5052807;28;20451;-73
2024/01/07 08:27:18;;;;;;;55.83;3.00;;;;;;;;;;5053021;28;20512;-73
2024/01/07 08:29:45;;;;;;;55.90;2.70;;;;;;;;;;5052882;28;20451;-72
2024/01/07 08:32:13;;;;;;;55.40;2.50;;;;;;;;;;5053206;28;20453;-72
2024/01/07 08:34:40;;;;;;;55.60;2.90;;;;;;;;;;5052364;28;20560;-72
2024/01/07 08:37:08;;;;;;;55.70;2.83;;;;;;;;;;5052773;28;20534;-73
2024/01/07 08:39:35;;;;;;;56.10;3.80;;;;;;;;;;5053004;28;20455;-72
2024/01/07 08:42:03;;;;;;;55.40;3.03;;;;;;;;;;5052727;28;20451;-72
2024/01/07 08:44:32;;;;;;;55.67;2.50;;;;;;;;;;5052224;28;20521;-72
2024/01/07 08:47:00;;;;;;;55.77;3.17;;;;;;;;;;5052650;28;20447;-73
2024/01/07 08:49:27;;;;;;;55.47;2.67;;;;;;;;;;5052845;28;20559;-73
2024/01/07 08:51:55;;;;;;;55.53;2.60;;;;;;;;;;5052528;28;20455;-72
2024/01/07 08:54:22;;;;;;;55.77;2.80;;;;;;;;;;5052305;28;21017;-72
2024/01/07 08:56:50;;;;;;;55.57;2.50;;;;;;;;;;5052083;28;20581;-73
2024/01/07 08:59:17;;;;;;;55.50;2.60;;;;;;;;;;5052493;28;20488;-72
2024/01/07 09:01:45;;;;;;;55.60;2.33;;;;;;;;;;5051967;28;20465;-71
2024/01/07 09:04:12;;;;;;;55.47;2.17;;;;;;;;;;5052424;28;20471;-72
2024/01/07 09:06:40;;;;;;;55.90;2.67;;;;;;;;;;5052167;28;20457;-73
2024/01/07 09:09:08;;;;;;;55.50;2.60;;;;;;;;;;5052522;28;20469;-73
2024/01/07 09:11:36;;;;;;;55.50;2.90;;;;;;;;;;5052101;28;20501;-72
2024/01/07 09:14:04;;;;;;;56.07;3.13;;;;;;;;;;5052365;28;20470;-71
2024/01/07 09:16:31;;;;;;;55.90;3.10;;;;;;;;;;5051987;28;20957;-72
2024/01/07 09:18:59;;;;;;;55.60;2.63;;;;;;;;;;5052131;28;20450;-72
2024/01/07 09:21:26;;;;;;;55.27;2.40;;;;;;;;;;5051995;28;20451;-71
2024/01/07 09:23:53;;;;;;;55.60;2.70;;;;;;;;;;5051759;28;21008;-72
2024/01/07 09:26:21;;;;;;;55.40;2.30;;;;;;;;;;5052024;28;20552;-72
2024/01/07 09:28:48;;;;;;;55.50;2.50;;;;;;;;;;5051903;28;20455;-72
2024/01/07 09:31:15;;;;;;;57.27;3.23;;;;;;;;;;5051982;28;20454;-72
2024/01/07 09:33:43;;;;;;;55.58;2.40;;;;;;;;;;5051793;28;20489;-72
2024/01/07 09:36:11;;;;;;;55.63;2.70;;;;;;;;;;5051552;28;20224;-73
2024/01/07 09:38:38;;;;;;;59.60;3.47;;;;;;;;;;5051744;28;20459;-75
2024/01/07 09:41:05;;;;;;;55.43;2.60;;;;;;;;;;5043883;28;20447;-73
2024/01/07 09:43:32;;;;;;;55.40;2.20;;;;;;;;;;5051424;28;20466;-72
2024/01/07 09:45:59;;;;;;;55.53;2.60;;;;;;;;;;5051457;28;20965;-72
2024/01/07 09:48:27;;;;;;;55.20;2.40;;;;;;;;;;5051659;28;20823;-72
2024/01/07 09:50:54;;;;;;;55.50;2.40;;;;;;;;;;5051346;28;20580;-72
2024/01/07 09:53:27;;;;;;;55.67;2.53;;;;;;;;;;5051604;28;20475;-72
2024/01/07 09:55:58;;;;;;;55.67;2.50;;;;;;;;;;5051332;28;20491;-72
2024/01/07 09:58:26;;;;;;;55.30;2.30;;;;;;;;;;5051647;28;20810;-71
2024/01/07 10:00:54;;;;;;;55.60;2.50;;;;;;;;;;5051437;28;20551;-72
2024/01/07 10:03:21;;;;;;;55.60;2.40;;;;;;;;;;5051206;28;20474;-72
2024/01/07 10:05:48;;;;;;;55.50;2.60;;;;;;;;;;5050976;28;20449;-71
2024/01/07 10:08:15;;;;;;;55.60;2.50;;;;;;;;;;5051380;28;20926;-72
2024/01/07 10:10:43;;;;;;;55.70;2.60;;;;;;;;;;5051715;28;20454;-72
2024/01/07 10:13:10;;;;;;;55.57;2.40;;;;;;;;;;5050544;28;20566;-72
2024/01/07 10:15:38;;;;;;;55.67;2.30;;;;;;;;;;5050966;28;20490;-72
2024/01/07 10:18:06;;;;;;;55.70;2.20;;;;;;;;;;5050831;28;20950;-72
2024/01/07 10:20:34;;;;;;;55.37;2.30;;;;;;;;;;5051163;28;20454;-72
2024/01/07 10:23:01;;;;;;;55.70;2.63;;;;;;;;;;5051122;28;20474;-72
2024/01/07 10:25:28;;;;;;;55.70;2.93;;;;;;;;;;5050858;28;20450;-72
2024/01/07 10:28:00;;;;;;;55.30;2.50;;;;;;;;;;5051046;28;20865;-72
2024/01/07 10:30:27;;;;;;;55.90;2.97;;;;;;;;;;5050899;28;20451;-72
2024/01/07 10:32:57;;;;;;;55.47;2.40;;;;;;;;;;5050670;28;20520;-72
2024/01/07 10:35:29;;;;;;;55.50;2.30;;;;;;;;;;5050744;28;20486;-72
2024/01/07 10:37:56;;;;;;;55.83;2.73;;;;;;;;;;5050902;28;20458;-72
2024/01/07 10:40:23;;;;;;;55.57;2.70;;;;;;;;;;5050957;28;20462;-73
2024/01/07 10:42:51;;;;;;;55.70;2.40;;;;;;;;;;5050571;28;20465;-72
2024/01/07 10:45:19;;;;;;;55.40;2.40;;;;;;;;;;5050494;28;20458;-73
2024/01/07 10:47:49;;;;;;;55.60;2.60;;;;;;;;;;5051080;28;20916;-73
2024/01/07 10:50:17;;;;;;;55.37;2.60;;;;;;;;;;5050896;28;20454;-73
2024/01/07 10:52:45;;;;;;;55.40;2.40;;;;;;;;;;5050472;28;20561;-73
2024/01/07 10:55:14;;;;;;;55.50;2.73;;;;;;;;;;5050454;28;20487;-73
2024/01/07 10:57:44;;;;;;;55.47;2.30;;;;;;;;;;5050523;28;20942;-73
2024/01/07 11:00:18;;;;;;;55.60;2.50;;;;;;;;;;5047040;28;20457;-72
2024/01/07 11:02:51;;;;;;;56.53;3.10;;;;;;;;;;5047343;28;20466;-73
2024/01/07 11:05:21;;;;;;;55.37;2.40;;;;;;;;;;5050412;28;20442;-72
2024/01/07 11:07:53;;;;;;;55.60;2.50;;;;;;;;;;5050231;28;20446;-73
2024/01/07 11:10:22;;;;;;;55.50;2.50;;;;;;;;;;5043422;28;20491;-72
2024/01/07 11:12:55;;;;;;;55.90;2.73;;;;;;;;;;5050282;28;20466;-72
2024/01/07 11:15:37;;;;;;;55.50;2.60;;;;;;;;;;5050212;28;20487;-75
2024/01/07 11:18:07;;;;;;;56.67;2.83;;;;;;;;;;5049939;28;20466;-72
2024/01/07 11:20:36;;;;;;;55.60;2.70;;;;;;;;;;5045577;28;20877;-73
2024/01/07 11:23:37;;;;;;;55.70;2.43;;;;;;;;;;5050840;28;20471;-72
2024/01/07 11:26:04;;;;;;;56.30;3.73;;;;;;;;;;5011694;28;20464;-72
2024/01/07 11:28:44;;;;;;;56.33;2.97;;;;;;;;;;5012057;28;20463;-72
2024/01/07 11:31:11;;;;;;;58.77;2.63;;;;;;;;;;5011924;28;20455;-73
2024/01/07 11:33:39;;;;;;;55.70;2.50;;;;;;;;;;5011769;28;20508;-74
2024/01/07 11:36:07;;;;;;;55.60;2.50;;;;;;;;;;5011482;28;20495;-73
2024/01/07 11:38:36;;;;;;;59.00;2.80;;;;;;;;;;5011851;28;20449;-74
2024/01/07 11:41:05;;;;;;;56.20;3.40;;;;;;;;;;5011666;28;20496;-72
2024/01/07 11:43:33;;;;;;;55.90;3.13;;;;;;;;;;5011646;28;20488;-73
2024/01/07 11:46:00;;;;;;;55.67;2.40;;;;;;;;;;5011528;28;20476;-72
2024/01/07 11:48:27;;;;;;;55.47;2.30;;;;;;;;;;5011736;28;20837;-73
2024/01/07 11:50:56;;;;;;;55.80;2.77;;;;;;;;;;5011503;28;20464;-72
2024/01/07 11:53:23;;;;;;;56.10;3.07;;;;;;;;;;5011582;28;20873;-73
2024/01/07 11:55:50;;;;;;;55.60;2.90;;;;;;;;;;5012064;28;20494;-72
2024/01/07 11:58:17;;;;;;;56.37;2.73;;;;;;;;;;5053678;28;20450;-73
2024/01/07 12:00:45;;;;;;;55.37;2.57;;;;;;;;;;5053750;28;20897;-73
2024/01/07 12:03:13;;;;;;;57.87;2.87;;;;;;;;;;5053521;28;20468;-72
2024/01/07 12:05:40;;;;;;;56.23;3.30;;;;;;;;;;5053427;28;20447;-72
2024/01/07 12:08:09;;;;;;;55.50;2.53;;;;;;;;;;5053328;28;21079;-73
2024/01/07 12:10:36;;;;;;;55.80;3.50;;;;;;;;;;5053212;28;20451;-73
2024/01/07 12:13:03;;;;;;;55.90;2.80;;;;;;;;;;5053411;28;20477;-73
2024/01/07 12:15:31;;;;;;;56.72;3.30;;;;;;;;;;5053132;28;20700;-73
2024/01/07 12:17:59;;;;;;;55.53;2.83;;;;;;;;;;5053528;28;20227;-73
2024/01/07 12:20:26;;;;;;;55.70;2.65;;;;;;;;;;5053496;28;20451;-72
2024/01/07 12:22:54;;;;;;;56.67;3.20;;;;;;;;;;5053454;28;20238;-72
2024/01/07 12:25:25;;;;;;;55.80;2.60;;;;;;;;;;5052907;28;20254;-74
2024/01/07 12:27:53;;;;;;;55.87;3.37;;;;;;;;;;5052988;28;20472;-72
2024/01/07 12:30:25;;;;;;;55.50;2.40;;;;;;;;;;5053009;28;20454;-72
2024/01/07 12:32:53;;;;;;;55.90;3.33;;;;;;;;;;5052856;28;20513;-73
2024/01/07 12:35:20;;;;;;;55.70;2.83;;;;;;;;;;5052060;28;21022;-73
2024/01/07 12:37:47;;;;;;;55.57;2.70;;;;;;;;;;5052922;28;20497;-72
2024/01/07 12:40:14;;;;;;;55.67;2.72;;;;;;;;;;5053112;28;20827;-72
2024/01/07 12:42:45;;;;;;;55.80;2.80;;;;;;;;;;5052886;28;20204;-72
2024/01/07 12:45:14;;;;;;;55.63;2.50;;;;;;;;;;5052710;28;20442;-73
2024/01/07 12:47:41;;;;;;;55.57;2.87;;;;;;;;;;5052700;28;20461;-72
2024/01/07 12:50:09;;;;;;;55.70;2.78;;;;;;;;;;5052688;28;20459;-73
2024/01/07 12:52:37;;;;;;;58.57;4.50;;;;;;;;;;5052628;28;20203;-72
2024/01/07 12:55:04;;;;;;;55.60;2.67;;;;;;;;;;5052180;28;20462;-72
2024/01/07 12:57:31;;;;;;;55.80;2.72;;;;;;;;;;5052565;28;20555;-73
2024/01/07 12:59:59;;;;;;;56.45;3.42;;;;;;;;;;5052395;28;20214;-72
2024/01/07 13:02:27;;;;;;;55.88;2.92;;;;;;;;;;5052327;28;20207;-72
2024/01/07 13:04:55;;;;;;;55.67;2.50;;;;;;;;;;5051978;28;20299;-73
2024/01/07 13:07:23;;;;;;;56.00;2.50;;;;;;;;;;5052597;28;20574;-73
2024/01/07 13:09:51;;;;;;;55.80;2.60;;;;;;;;;;5052204;28;20207;-72
2024/01/07 13:12:18;;;;;;;55.70;2.97;;;;;;;;;;5052404;28;20203;-72
2024/01/07 13:14:46;;;;;;;56.10;2.80;;;;;;;;;;5051749;28;20471;-73
2024/01/07 13:17:15;;;;;;;55.80;2.83;;;;;;;;;;5051758;28;20304;-72
2024/01/07 13:19:42;;;;;;;55.90;3.00;;;;;;;;;;5052382;28;20210;-73
2024/01/07 13:22:10;;;;;;;55.67;2.65;;;;;;;;;;5052079;28;20946;-73
2024/01/07 13:24:37;;;;;;;62.70;3.90;;;;;;;;;;5051829;28;20224;-73
2024/01/07 13:27:05;;;;;;;55.67;2.70;;;;;;;;;;5051776;28;20454;-73
2024/01/07 13:29:32;;;;;;;55.97;2.65;;;;;;;;;;5051896;28;20203;-73
2024/01/07 13:31:59;;;;;;;55.90;2.70;;;;;;;;;;5051668;28;20532;-74
2024/01/07 13:34:27;;;;;;;56.60;3.08;;;;;;;;;;5051796;28;20238;-73
2024/01/07 13:36:55;;;;;;;56.00;3.10;;;;;;;;;;5051501;28;20231;-74
2024/01/07 13:39:22;;;;;;;56.08;2.90;;;;;;;;;;5047772;28;20211;-74
2024/01/07 13:41:50;;;;;;;55.65;2.78;;;;;;;;;;5048231;28;20208;-74
2024/01/07 13:44:18;;;;;;;55.90;2.80;;;;;;;;;;5046139;28;20621;-74
2024/01/07 13:46:45;;;;;;;56.60;3.17;;;;;;;;;;5046477;28;20211;-74
2024/01/07 13:49:13;;;;;;;56.10;2.67;;;;;;;;;;5051723;28;20249;-74
2024/01/07 13:51:41;;;;;;;55.70;2.42;;;;;;;;;;5050532;28;20582;-74
2024/01/07 13:54:10;;;;;;;55.67;2.60;;;;;;;;;;5048441;28;20229;-73
2024/01/07 13:56:41;;;;;;;56.77;3.60;;;;;;;;;;5050047;28;20733;-74
2024/01/07 13:59:08;;;;;;;55.97;2.50;;;;;;;;;;5051416;28;20454;-73
2024/01/07 14:01:35;;;;;;;56.15;2.70;;;;;;;;;;5050824;28;20211;-74
2024/01/07 14:04:02;;;;;;;56.00;2.75;;;;;;;;;;5047723;28;20319;-74
2024/01/07 14:06:29;;;;;;;56.00;2.47;;;;;;;;;;5051070;28;20210;-73
2024/01/07 14:08:58;;;;;;;55.90;2.92;;;;;;;;;;5048780;28;20583;-74
2024/01/07 14:11:26;;;;;;;55.95;2.95;;;;;;;;;;5051026;28;20298;-73
2024/01/07 14:13:53;;;;;;;55.88;2.90;;;;;;;;;;5051229;28;20310;-73
2024/01/07 14:16:20;;;;;;;57.45;3.10;;;;;;;;;;5051176;28;20229;-74
2024/01/07 14:18:47;;;;;;;55.65;2.40;;;;;;;;;;5051254;28;20200;-74
2024/01/07 14:21:15;;;;;;;55.80;2.67;;;;;;;;;;5050834;28;20241;-71
2024/01/07 14:23:42;;;;;;;55.90;2.83;;;;;;;;;;5050767;28;20707;-71
2024/01/07 14:26:10;;;;;;;56.17;2.90;;;;;;;;;;5051102;28;20656;-72
2024/01/07 14:28:37;;;;;;;56.10;2.95;;;;;;;;;;5051091;28;20445;-73
2024/01/07 14:31:04;;;;;;;55.95;2.85;;;;;;;;;;5050742;28;20231;-73
2024/01/07 14:33:31;;;;;;;55.90;2.75;;;;;;;;;;5047932;28;20595;-73